Time;durP1;ratioP1;P1;durP2;ratioP2;P2;SDS_P1;SDS_P2;PMS_P1;PMS_P2;Temp;Humidity;BMP_temperature;BMP_pressure;BME280_temperature;BME280_humidity;BME280_pressure;Samples;Min_cycle;Max_cycle;Signal;HPM_P1;HPM_P2
2021/07/12 00:00:55;;;;;;;8.80;7.93;;;17.90;99.90;;;;;;5063567;28;20039;-56
2021/07/12 00:03:20;;;;;;;9.20;8.30;;;17.90;99.90;;;;;;5055217;28;20025;-55
2021/07/12 00:05:46;;;;;;;14.60;9.02;;;18.00;99.90;;;;;;5047750;28;20039;-56
2021/07/12 00:08:11;;;;;;;11.20;8.63;;;17.90;99.90;;;;;;5064616;28;20522;-55
2021/07/12 00:10:37;;;;;;;11.25;8.45;;;18.00;99.90;;;;;;5055332;28;20032;-55
2021/07/12 00:13:03;;;;;;;10.10;8.50;;;17.90;99.90;;;;;;5062833;28;20025;-55
2021/07/12 00:15:30;;;;;;;10.90;9.18;;;17.90;99.90;;;;;;5055383;28;20064;-55
2021/07/12 00:17:56;;;;;;;12.88;9.32;;;17.90;99.90;;;;;;5054144;28;20029;-56
2021/07/12 00:20:23;;;;;;;10.25;8.90;;;17.80;99.90;;;;;;5058142;28;20082;-56
2021/07/12 00:22:50;;;;;;;9.23;8.25;;;17.80;99.90;;;;;;5052743;28;20071;-56
2021/07/12 00:25:20;;;;;;;9.93;8.68;;;17.80;99.90;;;;;;5060028;28;20027;-55
2021/07/12 00:27:46;;;;;;;10.00;8.82;;;17.80;99.90;;;;;;5059163;28;20029;-55
2021/07/12 00:30:14;;;;;;;9.98;8.98;;;17.80;99.90;;;;;;5057456;28;20032;-56
2021/07/12 00:32:40;;;;;;;12.85;9.93;;;17.70;99.90;;;;;;5060930;28;20398;-56
2021/07/12 00:35:08;;;;;;;9.90;8.93;;;17.70;99.90;;;;;;5057397;28;20025;-56
2021/07/12 00:37:34;;;;;;;11.70;10.30;;;17.80;99.90;;;;;;5059066;28;20274;-56
2021/07/12 00:40:00;;;;;;;12.27;10.77;;;17.70;99.90;;;;;;5046114;28;20060;-56
2021/07/12 00:42:25;;;;;;;11.43;10.23;;;17.80;99.90;;;;;;5060800;28;20048;-56
2021/07/12 00:44:51;;;;;;;10.80;9.40;;;17.70;99.90;;;;;;5057715;28;20040;-56
2021/07/12 00:47:17;;;;;;;10.10;9.10;;;17.70;99.90;;;;;;5053652;28;20056;-56
2021/07/12 00:49:42;;;;;;;11.40;9.55;;;17.60;99.90;;;;;;5057759;28;20033;-56
2021/07/12 00:52:08;;;;;;;14.25;10.82;;;17.60;99.90;;;;;;5059947;28;20057;-56
2021/07/12 00:54:35;;;;;;;11.70;10.32;;;17.60;99.90;;;;;;5054403;28;20070;-56
2021/07/12 00:57:04;;;;;;;10.07;9.07;;;17.70;99.90;;;;;;5064954;28;20025;-56
2021/07/12 00:59:30;;;;;;;12.88;11.07;;;17.70;99.90;;;;;;5062657;28;20024;-56
2021/07/12 01:01:55;;;;;;;11.40;10.00;;;17.70;99.90;;;;;;5061602;28;20020;-56
2021/07/12 01:04:21;;;;;;;12.45;10.10;;;17.60;99.90;;;;;;5062038;28;20111;-56
2021/07/12 01:06:46;;;;;;;10.98;9.85;;;17.60;99.90;;;;;;5060888;28;20595;-56
2021/07/12 01:09:12;;;;;;;10.95;9.85;;;17.60;99.90;;;;;;5062179;28;20481;-56
2021/07/12 01:11:59;;;;;;;12.23;9.00;;;17.60;99.90;;;;;;5052555;28;20030;-56
2021/07/12 01:14:42;;;;;;;12.32;11.00;;;17.50;99.90;;;;;;5051954;28;20032;-56
2021/07/12 01:17:18;;;;;;;13.45;11.93;;;17.50;99.90;;;;;;5058963;28;20043;-56
2021/07/12 01:20:19;;;;;;;12.45;11.15;;;17.60;99.90;;;;;;5053248;28;20115;-56
2021/07/12 01:23:05;;;;;;;13.52;10.63;;;17.60;99.90;;;;;;5056295;28;20017;-56
2021/07/12 01:25:54;;;;;;;12.73;10.77;;;17.60;99.90;;;;;;5050332;28;20132;-56
2021/07/12 01:28:54;;;;;;;11.77;10.18;;;17.60;99.90;;;;;;5051730;28;20017;-56
2021/07/12 01:31:34;;;;;;;12.90;10.93;;;17.50;99.90;;;;;;5060774;28;20028;-56
2021/07/12 01:34:23;;;;;;;12.02;10.82;;;17.50;99.90;;;;;;5060427;28;20028;-56
2021/07/12 01:37:06;;;;;;;12.43;11.13;;;17.50;99.90;;;;;;5054802;28;20025;-57
2021/07/12 01:40:00;;;;;;;10.52;9.52;;;17.40;99.90;;;;;;5045258;28;20034;-55
2021/07/12 01:42:33;;;;;;;11.75;10.55;;;17.40;99.90;;;;;;5056599;28;20063;-55
2021/07/12 01:45:14;;;;;;;11.63;10.52;;;17.40;99.90;;;;;;5060309;28;20151;-55
2021/07/12 01:47:52;;;;;;;;;;;17.40;99.90;;;;;;5062143;28;20095;-56
2021/07/12 01:50:20;;;;;;;11.80;10.18;;;17.30;99.90;;;;;;5051452;28;19913;-56
2021/07/12 01:53:11;;;;;;;13.38;11.40;;;17.20;99.90;;;;;;5061885;28;20028;-56
2021/07/12 01:55:51;;;;;;;10.85;9.75;;;17.20;99.90;;;;;;5056779;28;20040;-56
2021/07/12 01:58:36;;;;;;;11.57;10.38;;;17.10;99.90;;;;;;5052650;28;20032;-56
2021/07/12 02:01:03;;;;;;;11.93;10.68;;;17.10;99.90;;;;;;5065647;28;20020;-57
2021/07/12 02:03:30;;;;;;;11.70;10.15;;;17.10;99.90;;;;;;5056588;28;20394;-56
2021/07/12 02:05:59;;;;;;;12.77;11.45;;;17.10;99.90;;;;;;5058618;28;20029;-56
2021/07/12 02:08:26;;;;;;;11.57;10.35;;;17.10;99.90;;;;;;5049640;28;20107;-56
2021/07/12 02:10:53;;;;;;;12.65;11.20;;;17.00;99.90;;;;;;5058745;28;20040;-56
2021/07/12 02:13:18;;;;;;;12.18;9.95;;;17.00;99.90;;;;;;5051229;28;20017;-56
2021/07/12 02:15:47;;;;;;;11.77;10.57;;;17.00;99.90;;;;;;5054812;28;20024;-56
2021/07/12 02:18:13;;;;;;;13.60;12.13;;;17.00;99.90;;;;;;5068080;28;20182;-56
2021/07/12 02:20:40;;;;;;;14.70;12.80;;;17.00;99.90;;;;;;5061008;28;20029;-56
2021/07/12 02:23:07;;;;;;;14.45;11.77;;;17.00;99.90;;;;;;5058043;28;20013;-57
2021/07/12 02:25:33;;;;;;;12.38;11.07;;;17.00;99.90;;;;;;5058182;28;20481;-57
2021/07/12 02:27:59;;;;;;;11.63;10.52;;;17.00;99.90;;;;;;5065053;28;20056;-57
2021/07/12 02:30:27;;;;;;;13.02;11.25;;;17.00;99.90;;;;;;5061141;28;20029;-57
2021/07/12 02:32:54;;;;;;;11.27;10.05;;;17.00;99.90;;;;;;5060846;28;20115;-57
2021/07/12 02:35:20;;;;;;;16.98;11.75;;;16.90;99.90;;;;;;5060511;28;20016;-57
2021/07/12 02:37:47;;;;;;;12.57;11.27;;;16.90;99.90;;;;;;5060367;28;20033;-57
2021/07/12 02:40:16;;;;;;;13.18;11.60;;;16.90;99.90;;;;;;5058481;28;20035;-57
2021/07/12 02:42:45;;;;;;;13.90;11.25;;;16.90;99.90;;;;;;5062463;28;20066;-56
2021/07/12 02:45:11;;;;;;;14.20;11.20;;;16.90;99.90;;;;;;5059359;28;20075;-57
2021/07/12 02:47:39;;;;;;;11.95;10.35;;;17.00;99.90;;;;;;5061261;28;20017;-56
2021/07/12 02:50:07;;;;;;;13.88;11.00;;;16.90;99.90;;;;;;5058438;28;20021;-56
2021/07/12 02:52:56;;;;;;;15.82;11.98;;;16.90;99.90;;;;;;5060789;28;20032;-56
2021/07/12 02:55:22;;;;;;;11.55;10.35;;;16.90;99.90;;;;;;5055372;28;20036;-56
2021/07/12 02:57:47;;;;;;;12.05;10.40;;;16.90;99.90;;;;;;5029180;28;20026;-56
2021/07/12 03:00:13;;;;;;;12.15;10.52;;;16.90;99.90;;;;;;5028026;28;20041;-56
2021/07/12 03:02:40;;;;;;;11.32;9.90;;;16.90;99.90;;;;;;5028662;28;20052;-56
2021/07/12 03:05:08;;;;;;;12.48;11.18;;;16.90;99.90;;;;;;5031127;28;20032;-56
2021/07/12 03:07:40;;;;;;;14.07;12.30;;;16.80;99.90;;;;;;5028480;28;20165;-56
2021/07/12 03:10:11;;;;;;;12.38;11.07;;;16.80;99.90;;;;;;5028004;28;20037;-56
2021/07/12 03:12:48;;;;;;;12.15;10.85;;;16.90;99.90;;;;;;5030550;28;20120;-57
2021/07/12 03:15:17;;;;;;;11.43;10.23;;;16.80;99.90;;;;;;5027274;28;20105;-56
2021/07/12 03:17:49;;;;;;;14.93;10.65;;;16.80;99.90;;;;;;5033616;28;20124;-56
2021/07/12 03:20:15;;;;;;;11.07;9.93;;;16.80;99.90;;;;;;5047305;28;20100;-56
2021/07/12 03:22:46;;;;;;;12.38;10.88;;;16.80;99.90;;;;;;5047340;28;20308;-56
2021/07/12 03:25:15;;;;;;;;;;;16.80;99.90;;;;;;5045942;28;20433;-56
2021/07/12 03:27:42;;;;;;;11.80;10.52;;;16.80;99.90;;;;;;5043382;28;19904;-56
2021/07/12 03:30:10;;;;;;;10.95;9.88;;;16.80;99.90;;;;;;5037980;28;20026;-56
2021/07/12 03:32:36;;;;;;;13.13;10.55;;;16.80;99.90;;;;;;5057052;28;20172;-57
2021/07/12 03:35:03;;;;;;;11.88;10.23;;;16.70;99.90;;;;;;5039084;28;20032;-56
2021/07/12 03:37:30;;;;;;;14.05;11.05;;;16.70;99.90;;;;;;5040661;28;20475;-56
2021/07/12 03:39:56;;;;;;;12.30;9.90;;;16.70;99.90;;;;;;5041135;28;20026;-56
2021/07/12 03:42:22;;;;;;;11.95;10.65;;;16.70;99.90;;;;;;5053919;28;20028;-57
2021/07/12 03:44:49;;;;;;;11.85;10.63;;;16.70;99.90;;;;;;5049329;28;20586;-57
2021/07/12 03:47:32;;;;;;;12.15;10.82;;;16.70;99.90;;;;;;5039830;28;20562;-58
2021/07/12 03:50:12;;;;;;;13.27;10.40;;;16.70;99.90;;;;;;5046513;28;20034;-58
2021/07/12 03:52:44;;;;;;;12.38;10.30;;;16.70;99.90;;;;;;5036752;28;20029;-57
2021/07/12 03:55:12;;;;;;;13.18;10.45;;;16.70;99.90;;;;;;5046015;28;20030;-57
2021/07/12 03:57:38;;;;;;;12.20;10.93;;;16.80;99.90;;;;;;5040051;28;20449;-57
2021/07/12 04:00:10;;;;;;;13.82;11.45;;;16.70;99.90;;;;;;5049763;28;20470;-57
2021/07/12 04:02:37;;;;;;;14.10;11.77;;;16.60;99.90;;;;;;5037049;28;20501;-57
2021/07/12 04:05:03;;;;;;;16.10;12.00;;;16.60;99.90;;;;;;5035803;28;20025;-56
2021/07/12 04:07:29;;;;;;;15.38;11.70;;;16.60;99.90;;;;;;5040163;28;20032;-57
2021/07/12 04:09:54;;;;;;;13.38;11.98;;;16.60;99.90;;;;;;5041079;28;20383;-57
2021/07/12 04:12:23;;;;;;;13.88;12.35;;;16.70;99.90;;;;;;5037683;28;20031;-58
2021/07/12 04:14:53;;;;;;;14.95;12.13;;;16.70;99.90;;;;;;5047384;28;20013;-58
2021/07/12 04:17:20;;;;;;;15.60;12.40;;;16.70;99.90;;;;;;5046595;28;20033;-57
2021/07/12 04:19:46;;;;;;;12.23;10.95;;;16.70;99.90;;;;;;5054797;28;20545;-57
2021/07/12 04:22:11;;;;;;;17.58;13.70;;;16.80;99.90;;;;;;5063143;28;20036;-58
2021/07/12 04:24:37;;;;;;;17.00;13.52;;;16.80;99.90;;;;;;5054928;28;20025;-57
2021/07/12 04:27:03;;;;;;;13.57;12.18;;;16.80;99.90;;;;;;5060520;28;20028;-58
2021/07/12 04:29:28;;;;;;;16.77;13.30;;;16.80;99.90;;;;;;5065537;28;20035;-57
2021/07/12 04:31:56;;;;;;;14.93;12.93;;;16.80;99.90;;;;;;5054907;28;20018;-56
2021/07/12 04:34:22;;;;;;;14.88;12.35;;;16.90;99.90;;;;;;5044922;28;20032;-57
2021/07/12 04:36:47;;;;;;;18.90;12.95;;;16.90;99.90;;;;;;5049406;28;20033;-56
2021/07/12 04:39:13;;;;;;;15.15;12.63;;;16.90;99.90;;;;;;5066922;28;20039;-57
2021/07/12 04:41:38;;;;;;;14.15;12.75;;;17.00;99.90;;;;;;5050763;28;20026;-56
2021/07/12 04:44:04;;;;;;;12.70;11.38;;;17.00;99.90;;;;;;5049623;28;20049;-57
2021/07/12 04:46:30;;;;;;;14.05;12.65;;;17.10;99.90;;;;;;5056121;28;20021;-56
2021/07/12 04:48:55;;;;;;;27.90;15.30;;;17.10;99.90;;;;;;5047274;28;20498;-56
2021/07/12 04:51:21;;;;;;;17.00;12.68;;;17.10;99.90;;;;;;5061101;28;20060;-57
2021/07/12 04:53:47;;;;;;;16.00;13.32;;;17.20;99.90;;;;;;5047765;28;20037;-55
2021/07/12 04:56:12;;;;;;;13.43;12.02;;;17.20;99.90;;;;;;5059130;28;20259;-56
2021/07/12 04:58:44;;;;;;;16.42;14.52;;;17.20;99.90;;;;;;5033400;28;20029;-57
2021/07/12 05:01:10;;;;;;;13.77;12.25;;;17.30;99.90;;;;;;5053733;28;20374;-56
2021/07/12 05:03:35;;;;;;;16.23;11.35;;;17.30;99.90;;;;;;5031281;28;20098;-56
2021/07/12 05:06:01;;;;;;;16.30;13.30;;;17.30;99.90;;;;;;5033984;28;20369;-57
2021/07/12 05:08:26;;;;;;;14.27;12.75;;;17.40;99.90;;;;;;5041611;28;20519;-57
2021/07/12 05:10:52;;;;;;;15.85;11.90;;;17.40;99.90;;;;;;5038583;28;20097;-57
2021/07/12 05:13:18;;;;;;;13.10;10.93;;;17.50;99.90;;;;;;5033719;28;20097;-57
2021/07/12 05:15:44;;;;;;;13.20;11.75;;;17.60;99.90;;;;;;5031464;28;20029;-56
2021/07/12 05:18:10;;;;;;;14.25;12.70;;;17.60;99.90;;;;;;5040989;28;20661;-56
2021/07/12 05:20:35;;;;;;;16.77;13.77;;;17.70;99.90;;;;;;5045563;28;20036;-56
2021/07/12 05:23:01;;;;;;;15.15;12.68;;;17.80;99.90;;;;;;5050708;28;20131;-57
2021/07/12 05:25:27;;;;;;;21.17;15.48;;;17.80;99.90;;;;;;5053730;28;20512;-56
2021/07/12 05:27:52;;;;;;;19.58;16.40;;;17.90;99.90;;;;;;5044299;28;20122;-57
2021/07/12 05:30:18;;;;;;;20.42;14.50;;;18.00;99.90;;;;;;5038539;28;20025;-57
2021/07/12 05:32:44;;;;;;;17.70;14.45;;;18.10;99.90;;;;;;5030663;28;20125;-56
2021/07/12 05:35:10;;;;;;;15.63;13.40;;;18.30;99.90;;;;;;5035617;28;20099;-57
2021/07/12 05:37:37;;;;;;;18.17;13.95;;;18.30;99.90;;;;;;5035303;28;20033;-57
2021/07/12 05:40:04;;;;;;;13.80;12.15;;;18.50;99.90;;;;;;5038091;28;20032;-57
2021/07/12 05:42:29;;;;;;;19.58;16.45;;;18.50;99.90;;;;;;5042882;28;20017;-57
2021/07/12 05:44:55;;;;;;;17.40;15.50;;;18.60;99.90;;;;;;5038560;28;20079;-57
2021/07/12 05:47:20;;;;;;;21.92;15.38;;;18.70;99.90;;;;;;5040565;28;20028;-56
2021/07/12 05:49:46;;;;;;;19.30;15.93;;;18.80;99.90;;;;;;5032750;28;20116;-57
2021/07/12 05:52:11;;;;;;;17.25;12.55;;;18.80;99.90;;;;;;5043308;28;20028;-56
2021/07/12 05:54:37;;;;;;;13.65;12.18;;;18.90;99.90;;;;;;5044793;28;20263;-57
2021/07/12 05:57:02;;;;;;;14.98;13.30;;;18.90;99.90;;;;;;5037057;28;20045;-56
2021/07/12 05:59:28;;;;;;;14.90;13.38;;;19.00;99.90;;;;;;5038393;28;20038;-57
2021/07/12 06:01:53;;;;;;;13.70;12.30;;;19.10;99.90;;;;;;5036422;28;20487;-57
2021/07/12 06:04:19;;;;;;;19.38;14.13;;;19.10;99.90;;;;;;5038851;28;20024;-57
2021/07/12 06:06:45;;;;;;;14.13;12.25;;;19.30;99.90;;;;;;5032878;28;20035;-57
2021/07/12 06:09:10;;;;;;;13.43;11.68;;;19.40;99.90;;;;;;5042723;28;20028;-57
2021/07/12 06:11:36;;;;;;;16.70;11.23;;;19.60;99.90;;;;;;5040236;28;20605;-57
2021/07/12 06:14:02;;;;;;;13.88;11.50;;;19.70;99.90;;;;;;5050346;28;20045;-57
2021/07/12 06:16:27;;;;;;;13.95;11.88;;;19.80;99.90;;;;;;5041043;28;20095;-57
2021/07/12 06:18:53;;;;;;;13.77;11.40;;;20.00;99.90;;;;;;5060627;28;20111;-57
2021/07/12 06:21:19;;;;;;;12.98;11.68;;;20.10;99.90;;;;;;5052660;28;20383;-57
2021/07/12 06:23:44;;;;;;;14.52;11.68;;;20.20;99.90;;;;;;5060787;28;20016;-58
2021/07/12 06:26:09;;;;;;;14.23;12.07;;;20.40;99.90;;;;;;5057196;28;20086;-57
2021/07/12 06:28:35;;;;;;;13.27;11.48;;;20.50;99.90;;;;;;5054472;28;20036;-57
2021/07/12 06:31:00;;;;;;;14.48;10.35;;;20.80;99.90;;;;;;5056277;28;20044;-57
2021/07/12 06:33:28;;;;;;;14.48;11.10;;;21.10;99.90;;;;;;5056730;28;20036;-58
2021/07/12 06:35:54;;;;;;;11.50;9.32;;;21.10;99.90;;;;;;5060704;28;20055;-57
2021/07/12 06:38:20;;;;;;;9.55;8.63;;;21.40;99.90;;;;;;5059208;28;20446;-57
2021/07/12 06:40:45;;;;;;;10.85;8.98;;;21.40;99.90;;;;;;5039965;28;20052;-57
2021/07/12 06:43:11;;;;;;;11.38;8.27;;;21.40;99.90;;;;;;5038145;28;20040;-57
2021/07/12 06:45:38;;;;;;;8.50;7.70;;;21.60;99.90;;;;;;5037043;28;20029;-57
2021/07/12 06:48:04;;;;;;;9.30;7.97;;;21.50;99.90;;;;;;5027943;28;20025;-57
2021/07/12 06:50:30;;;;;;;10.35;7.65;;;21.50;99.90;;;;;;5027734;28;20064;-57
2021/07/12 06:52:55;;;;;;;10.02;8.18;;;21.30;99.90;;;;;;5028484;28;20065;-57
2021/07/12 06:55:21;;;;;;;11.10;8.55;;;21.30;99.90;;;;;;5036444;28;20033;-57
2021/07/12 06:57:46;;;;;;;8.95;7.68;;;21.30;99.90;;;;;;5053160;28;20029;-57
2021/07/12 07:00:13;;;;;;;11.27;8.73;;;21.30;99.90;;;;;;5048376;28;20024;-56
2021/07/12 07:02:39;;;;;;;11.32;7.85;;;21.30;99.90;;;;;;5055258;28;20044;-57
2021/07/12 07:05:06;;;;;;;9.35;7.95;;;21.40;99.90;;;;;;5038127;28;20036;-58
2021/07/12 07:07:32;;;;;;;9.55;8.55;;;21.50;99.90;;;;;;5031897;28;20025;-57
2021/07/12 07:09:57;;;;;;;8.70;7.68;;;21.50;99.90;;;;;;5035285;28;20025;-57
2021/07/12 07:12:23;;;;;;;7.30;6.60;;;21.50;99.90;;;;;;5032459;28;20171;-57
2021/07/12 07:14:48;;;;;;;8.88;7.88;;;21.50;99.90;;;;;;5042079;28;20021;-57
2021/07/12 07:17:14;;;;;;;8.10;7.30;;;21.60;99.90;;;;;;5051522;28;20492;-57
2021/07/12 07:19:39;;;;;;;8.40;7.53;;;21.70;99.90;;;;;;5054240;28;20029;-57
2021/07/12 07:22:05;;;;;;;7.13;6.53;;;21.70;99.90;;;;;;5063270;28;20028;-57
2021/07/12 07:24:30;;;;;;;9.73;6.63;;;21.80;99.90;;;;;;5053572;28;20017;-58
2021/07/12 07:26:56;;;;;;;6.70;6.07;;;22.00;99.90;;;;;;5036845;28;20021;-58
2021/07/12 07:29:21;;;;;;;7.65;6.90;;;22.00;99.90;;;;;;5031325;28;20458;-58
2021/07/12 07:31:49;;;;;;;6.70;6.10;;;22.10;99.90;;;;;;5028831;28;20021;-58
2021/07/12 07:34:15;;;;;;;7.20;6.60;;;22.20;99.90;;;;;;5046814;28;20531;-58
2021/07/12 07:36:42;;;;;;;7.00;6.32;;;22.30;99.90;;;;;;5030692;28;20027;-58
2021/07/12 07:39:07;;;;;;;8.00;5.78;;;22.40;99.90;;;;;;5038743;28;20025;-58
2021/07/12 07:41:36;;;;;;;7.20;6.50;;;22.40;99.90;;;;;;5035089;28;20021;-58
2021/07/12 07:44:06;;;;;;;7.95;5.85;;;22.60;99.90;;;;;;5049195;28;20016;-58
2021/07/12 07:46:32;;;;;;;7.45;6.35;;;22.70;99.90;;;;;;5052158;28;20487;-58
2021/07/12 07:48:58;;;;;;;7.78;6.50;;;22.80;99.90;;;;;;5047213;28;20078;-58
2021/07/12 07:51:23;;;;;;;6.40;5.80;;;22.90;99.90;;;;;;5055945;28;20033;-58
2021/07/12 07:53:49;;;;;;;7.43;6.70;;;23.00;99.90;;;;;;5051091;28;20024;-58
2021/07/12 07:56:14;;;;;;;7.07;5.50;;;23.30;99.90;;;;;;5047770;28;20120;-58
2021/07/12 07:58:40;;;;;;;8.00;6.07;;;23.50;99.90;;;;;;5033806;28;20429;-58
2021/07/12 08:01:05;;;;;;;9.70;5.55;;;23.60;99.90;;;;;;5048878;28;20104;-58
2021/07/12 08:03:31;;;;;;;6.35;5.72;;;23.70;99.90;;;;;;5038918;28;20387;-58
2021/07/12 08:05:56;;;;;;;5.90;5.40;;;23.80;99.90;;;;;;5035262;28;20033;-58
2021/07/12 08:08:22;;;;;;;8.35;5.60;;;24.00;99.90;;;;;;5059699;28;20103;-56
2021/07/12 08:10:47;;;;;;;6.78;5.10;;;24.20;99.90;;;;;;5051301;28;20068;-58
2021/07/12 08:13:13;;;;;;;6.75;5.60;;;24.60;99.90;;;;;;5062399;28;20025;-58
2021/07/12 08:15:39;;;;;;;7.95;5.68;;;24.70;99.90;;;;;;5050095;28;20040;-58
2021/07/12 08:18:05;;;;;;;7.80;5.15;;;24.90;99.90;;;;;;5060857;28;20032;-58
2021/07/12 08:20:31;;;;;;;6.43;5.00;;;25.30;99.90;;;;;;5056356;28;20075;-58
2021/07/12 08:22:57;;;;;;;7.97;4.55;;;25.90;99.90;;;;;;5061215;28;20021;-58
2021/07/12 08:25:23;;;;;;;6.20;3.78;;;26.50;99.90;;;;;;5052648;28;20025;-58
2021/07/12 08:27:49;;;;;;;4.40;4.00;;;26.80;99.90;;;;;;5048925;28;20329;-56
2021/07/12 08:30:16;;;;;;;6.35;4.38;;;27.40;98.70;;;;;;5049626;28;20029;-56
2021/07/12 08:32:42;;;;;;;4.72;3.60;;;28.50;97.10;;;;;;5039502;28;20030;-58
2021/07/12 08:35:09;;;;;;;4.70;3.88;;;29.50;96.10;;;;;;5032575;28;20029;-57
2021/07/12 08:37:35;;;;;;;4.13;3.50;;;30.20;94.80;;;;;;5037678;28;20037;-57
2021/07/12 08:40:03;;;;;;;7.70;3.55;;;31.30;90.00;;;;;;5034559;28;20071;-57
2021/07/12 08:42:28;;;;;;;5.10;3.85;;;31.70;84.50;;;;;;5032040;28;20044;-56
2021/07/12 08:44:54;;;;;;;3.80;3.50;;;32.60;75.80;;;;;;5039170;28;20029;-56
2021/07/12 08:47:20;;;;;;;5.85;4.05;;;32.10;76.40;;;;;;5038437;28;20057;-56
2021/07/12 08:49:46;;;;;;;4.28;3.50;;;31.70;75.60;;;;;;5032465;28;20061;-56
2021/07/12 08:52:12;;;;;;;3.75;3.45;;;31.60;75.40;;;;;;5032009;28;20033;-57
2021/07/12 08:54:38;;;;;;;3.80;3.50;;;31.70;76.10;;;;;;5033286;28;20507;-57
2021/07/12 08:57:04;;;;;;;4.05;3.65;;;32.00;74.60;;;;;;5032395;28;20067;-57
2021/07/12 08:59:31;;;;;;;3.95;3.55;;;32.90;73.90;;;;;;5031430;28;20041;-57
2021/07/12 09:02:05;;;;;;;4.57;4.10;;;32.10;73.80;;;;;;5032799;28;20113;-57
2021/07/12 09:04:31;;;;;;;7.15;4.22;;;31.30;75.00;;;;;;5031102;28;20051;-57
2021/07/12 09:07:05;;;;;;;4.93;3.55;;;31.20;74.80;;;;;;5030717;28;20213;-57
2021/07/12 09:09:30;;;;;;;4.00;3.70;;;31.50;73.20;;;;;;5032933;28;20029;-57
2021/07/12 09:12:12;;;;;;;4.13;3.72;;;31.40;72.30;;;;;;5031844;28;20013;-57
2021/07/12 09:14:42;;;;;;;6.22;3.90;;;31.50;73.10;;;;;;5031023;28;20033;-57
2021/07/12 09:17:09;;;;;;;4.43;4.03;;;30.60;71.80;;;;;;5034227;28;20026;-57
2021/07/12 09:19:37;;;;;;;4.68;3.53;;;30.80;75.00;;;;;;5032697;28;20430;-57
2021/07/12 09:22:08;;;;;;;6.07;3.30;;;31.60;72.40;;;;;;5032258;28;20013;-57
2021/07/12 09:24:42;;;;;;;3.60;3.30;;;33.10;69.00;;;;;;5031758;28;20297;-58
2021/07/12 09:27:13;;;;;;;7.53;3.28;;;33.70;66.50;;;;;;5032996;28;20056;-58
2021/07/12 09:29:44;;;;;;;5.78;3.05;;;34.70;63.70;;;;;;5033212;28;20093;-58
2021/07/12 09:32:13;;;;;;;3.22;3.03;;;34.80;62.00;;;;;;5031416;28;20159;-58
2021/07/12 09:34:39;;;;;;;;;;;34.70;62.60;;;;;;5032907;28;20044;-58
2021/07/12 09:37:06;;;;;;;3.72;3.38;;;35.50;60.70;;;;;;5032602;28;20394;-57
2021/07/12 09:39:41;;;;;;;5.25;3.63;;;36.90;58.40;;;;;;5030139;28;20033;-58
2021/07/12 09:42:08;;;;;;;4.25;3.33;;;38.20;56.20;;;;;;5032320;28;20224;-58
2021/07/12 09:44:37;;;;;;;3.17;2.88;;;38.40;53.60;;;;;;5035077;28;20036;-57
2021/07/12 09:47:08;;;;;;;3.65;3.15;;;37.20;54.00;;;;;;5032429;28;20025;-57
2021/07/12 09:49:34;;;;;;;4.18;3.72;;;36.20;54.60;;;;;;5031296;28;20403;-57
2021/07/12 09:52:02;;;;;;;4.35;3.55;;;34.90;57.80;;;;;;5041604;28;20021;-57
2021/07/12 09:54:33;;;;;;;3.72;3.42;;;34.60;59.50;;;;;;5036158;28;20079;-58
2021/07/12 09:57:04;;;;;;;4.60;3.38;;;35.80;57.20;;;;;;5045106;28;20064;-58
2021/07/12 09:59:30;;;;;;;3.38;3.08;;;36.20;56.90;;;;;;5051067;28;20103;-58
2021/07/12 10:01:56;;;;;;;3.58;3.28;;;37.00;53.70;;;;;;5049727;28;20033;-57
2021/07/12 10:04:23;;;;;;;7.32;4.03;;;36.70;53.50;;;;;;5049044;28;20119;-58
2021/07/12 10:06:50;;;;;;;4.90;3.55;;;35.40;53.60;;;;;;5042870;28;20031;-57
2021/07/12 10:09:19;;;;;;;4.38;3.35;;;34.70;57.30;;;;;;5055783;28;20028;-57
2021/07/12 10:11:45;;;;;;;6.00;3.92;;;34.70;57.60;;;;;;5043513;28;20025;-58
2021/07/12 10:14:11;;;;;;;3.80;3.13;;;34.30;57.60;;;;;;5046147;28;20080;-57
2021/07/12 10:16:37;;;;;;;3.50;3.20;;;33.90;59.20;;;;;;5050316;28;20043;-57
2021/07/12 10:19:03;;;;;;;4.05;3.72;;;33.80;58.80;;;;;;5052307;28;20116;-57
2021/07/12 10:21:41;;;;;;;4.00;3.40;;;33.30;58.50;;;;;;5044597;28;20116;-57
2021/07/12 10:24:07;;;;;;;3.50;3.20;;;34.00;60.20;;;;;;5053595;28;20018;-58
2021/07/12 10:26:48;;;;;;;3.58;3.28;;;35.20;57.20;;;;;;5051398;28;20545;-58
2021/07/12 10:29:17;;;;;;;4.20;3.08;;;35.00;56.30;;;;;;5048174;28;20104;-58
2021/07/12 10:32:04;;;;;;;3.40;3.00;;;34.80;55.60;;;;;;5036856;28;20426;-58
2021/07/12 10:34:32;;;;;;;4.18;2.90;;;33.60;57.40;;;;;;5036146;28;20021;-57
2021/07/12 10:37:04;;;;;;;3.47;3.17;;;33.80;57.80;;;;;;5046771;28;20545;-57
2021/07/12 10:40:07;;;;;;;3.65;3.35;;;34.00;57.70;;;;;;5054019;28;20174;-57
2021/07/12 10:42:42;;;;;;;5.10;3.42;;;34.30;57.20;;;;;;5038258;28;20060;-57
2021/07/12 10:45:15;;;;;;;3.10;2.90;;;34.00;56.80;;;;;;5035792;28;20048;-57
2021/07/12 10:47:41;;;;;;;4.57;3.58;;;33.70;56.80;;;;;;5038461;28;20449;-57
2021/07/12 10:50:38;;;;;;;3.35;3.10;;;34.40;56.60;;;;;;5034077;28;20486;-57
2021/07/12 10:53:26;;;;;;;5.07;3.08;;;35.20;54.60;;;;;;5037674;28;20033;-57
2021/07/12 10:55:58;;;;;;;2.67;2.47;;;35.20;54.30;;;;;;5030500;28;20113;-58
2021/07/12 10:58:33;;;;;;;4.03;2.60;;;35.20;53.60;;;;;;5030674;28;20021;-58
2021/07/12 11:01:01;;;;;;;3.05;2.78;;;36.30;50.90;;;;;;5034468;28;20017;-58
2021/07/12 11:03:48;;;;;;;2.50;2.30;;;36.10;52.80;;;;;;5039163;28;20139;-57
2021/07/12 11:06:16;;;;;;;3.50;2.45;;;36.00;51.60;;;;;;5053276;28;20023;-57
2021/07/12 11:08:56;;;;;;;3.08;2.63;;;35.50;52.30;;;;;;5044985;28;20176;-57
2021/07/12 11:11:22;;;;;;;4.85;4.15;;;34.70;53.50;;;;;;5039135;28;20016;-57
2021/07/12 11:13:52;;;;;;;6.95;4.80;;;33.60;55.50;;;;;;5044436;28;20514;-57
2021/07/12 11:16:19;;;;;;;4.75;2.92;;;33.90;56.10;;;;;;5035169;28;20158;-57
2021/07/12 11:18:45;;;;;;;3.38;3.08;;;33.80;54.50;;;;;;5034003;28;20102;-57
2021/07/12 11:21:12;;;;;;;3.03;2.72;;;33.50;56.40;;;;;;5054019;28;20124;-57
2021/07/12 11:24:12;;;;;;;4.50;2.90;;;33.00;56.30;;;;;;5058819;28;20143;-57
2021/07/12 11:26:40;;;;;;;3.55;2.50;;;32.80;56.70;;;;;;5048205;28;20028;-57
2021/07/12 11:29:30;;;;;;;3.45;3.15;;;32.40;58.50;;;;;;5051978;28;20488;-57
2021/07/12 11:32:01;;;;;;;3.63;2.72;;;32.80;56.40;;;;;;5044911;28;20022;-57
2021/07/12 11:34:37;;;;;;;3.90;3.55;;;32.80;58.70;;;;;;5058965;28;20032;-57
2021/07/12 11:37:09;;;;;;;3.10;2.83;;;33.10;57.20;;;;;;5048345;28;20053;-57
2021/07/12 11:39:41;;;;;;;5.32;3.58;;;32.70;56.10;;;;;;5051205;28;20452;-57
2021/07/12 11:42:16;;;;;;;3.45;3.05;;;32.00;58.70;;;;;;5050283;28;20018;-57
2021/07/12 11:44:50;;;;;;;3.85;3.28;;;32.10;58.30;;;;;;5055035;28;20254;-57
2021/07/12 11:47:19;;;;;;;2.90;2.70;;;32.50;57.60;;;;;;5055869;28;20017;-57
2021/07/12 11:49:52;;;;;;;3.00;2.80;;;33.10;56.30;;;;;;5038671;28;20064;-57
2021/07/12 11:52:18;;;;;;;3.65;3.00;;;34.00;55.00;;;;;;5041745;28;20024;-57
2021/07/12 11:54:44;;;;;;;3.95;2.80;;;34.50;55.30;;;;;;5042657;28;20678;-57
2021/07/12 11:57:15;;;;;;;4.38;3.15;;;34.70;53.90;;;;;;5046978;28;20386;-57
2021/07/12 11:59:42;;;;;;;3.53;3.22;;;34.90;52.40;;;;;;5049050;28;20585;-57
2021/07/12 12:02:13;;;;;;;2.85;2.65;;;32.80;53.70;;;;;;5060789;28;20672;-57
2021/07/12 12:04:58;;;;;;;4.38;3.22;;;32.50;57.90;;;;;;5045145;28;20025;-58
2021/07/12 12:07:35;;;;;;;4.38;4.00;;;33.10;57.40;;;;;;5045268;28;20021;-58
2021/07/12 12:10:14;;;;;;;4.70;4.30;;;31.20;58.70;;;;;;5045439;28;20025;-57
2021/07/12 12:12:49;;;;;;;5.10;3.80;;;30.10;60.20;;;;;;5054014;28;20491;-57
2021/07/12 12:15:29;;;;;;;6.18;4.22;;;29.40;64.30;;;;;;5051564;28;20308;-57
2021/07/12 12:18:02;;;;;;;4.38;3.97;;;29.20;63.40;;;;;;5053687;28;20079;-57
2021/07/12 12:20:35;;;;;;;5.55;4.18;;;29.70;65.10;;;;;;5041517;28;20112;-57
2021/07/12 12:23:08;;;;;;;4.38;3.97;;;30.10;64.10;;;;;;5056553;28;20017;-57
2021/07/12 12:26:03;;;;;;;4.30;3.90;;;30.50;62.70;;;;;;5053578;28;20024;-57
2021/07/12 12:28:41;;;;;;;4.68;4.28;;;30.80;62.30;;;;;;5050772;28;20082;-57
2021/07/12 12:31:11;;;;;;;5.13;4.68;;;30.50;60.80;;;;;;5055450;28;20024;-57
2021/07/12 12:33:41;;;;;;;5.32;4.82;;;30.60;63.50;;;;;;5047869;28;20016;-57
2021/07/12 12:36:09;;;;;;;4.45;4.05;;;31.10;61.90;;;;;;5055816;28;20044;-58
2021/07/12 12:38:36;;;;;;;4.30;3.83;;;31.80;62.20;;;;;;5060265;28;20017;-57
2021/07/12 12:41:08;;;;;;;6.50;4.57;;;31.90;61.80;;;;;;5051222;28;20111;-57
2021/07/12 12:43:34;;;;;;;4.32;3.92;;;31.90;60.10;;;;;;5039277;28;20025;-57
2021/07/12 12:46:03;;;;;;;5.70;4.45;;;31.70;61.80;;;;;;5060219;28;20036;-57
2021/07/12 12:48:40;;;;;;;5.43;4.25;;;31.20;61.90;;;;;;5058838;28;20116;-57